<?xml version="1.0" encoding="UTF-8" standalone="no" ?>
<gpx xmlns="http://www.topografix.com/GPX/1/1" xmlns:xsi="http://www.w3.org/2001/XMLSchema-instance" xsi:schemaLocation="http://www.topografix.com/GPX/1/1 http://www.topografix.com/GPX/1/1/gpx.xsd" version="1.1" creator="VisuGPX - https://www.visugpx.com">
  <metadata>
    <name>Larchant et chalet Jobert</name>
    <desc><![CDATA[De l'éléphant à la dame Jouanne en passant par le chalet Jobert]]></desc>
  </metadata>
  <trk>
    <name><![CDATA[13 mai 2023 10:14:31]]></name>
    <trkseg>
      <trkpt lat="48.29259" lon="2.59784">
        <ele>122.42</ele>
        <time>2023-05-13T08:14:31Z</time>
      </trkpt>
      <trkpt lat="48.29266" lon="2.59794">
        <ele>122.03</ele>
        <time>2023-05-13T08:14:47Z</time>
      </trkpt>
      <trkpt lat="48.29273" lon="2.59801">
        <ele>121.18</ele>
        <time>2023-05-13T08:14:56Z</time>
      </trkpt>
      <trkpt lat="48.29283" lon="2.59802">
        <ele>118.4</ele>
        <time>2023-05-13T08:15:11Z</time>
      </trkpt>
      <trkpt lat="48.29292" lon="2.59797">
        <ele>117.33</ele>
        <time>2023-05-13T08:15:31Z</time>
      </trkpt>
      <trkpt lat="48.29295" lon="2.59784">
        <ele>116.5</ele>
        <time>2023-05-13T08:15:38Z</time>
      </trkpt>
      <trkpt lat="48.29297" lon="2.59771">
        <ele>115.8</ele>
        <time>2023-05-13T08:15:44Z</time>
      </trkpt>
      <trkpt lat="48.29298" lon="2.59756">
        <ele>115.26</ele>
        <time>2023-05-13T08:15:51Z</time>
      </trkpt>
      <trkpt lat="48.29298" lon="2.59741">
        <ele>114.31</ele>
        <time>2023-05-13T08:16:00Z</time>
      </trkpt>
      <trkpt lat="48.29302" lon="2.59729">
        <ele>113.33</ele>
        <time>2023-05-13T08:16:07Z</time>
      </trkpt>
      <trkpt lat="48.29312" lon="2.59725">
        <ele>108.49</ele>
        <time>2023-05-13T08:16:38Z</time>
      </trkpt>
      <trkpt lat="48.29321" lon="2.5972">
        <ele>107.7</ele>
        <time>2023-05-13T08:16:46Z</time>
      </trkpt>
      <trkpt lat="48.29328" lon="2.59709">
        <ele>107.05</ele>
        <time>2023-05-13T08:16:51Z</time>
      </trkpt>
      <trkpt lat="48.29335" lon="2.59699">
        <ele>106.92</ele>
        <time>2023-05-13T08:16:56Z</time>
      </trkpt>
      <trkpt lat="48.29341" lon="2.59688">
        <ele>107.02</ele>
        <time>2023-05-13T08:17:06Z</time>
      </trkpt>
      <trkpt lat="48.29345" lon="2.59675">
        <ele>107.65</ele>
        <time>2023-05-13T08:17:12Z</time>
      </trkpt>
      <trkpt lat="48.29349" lon="2.59662">
        <ele>110.88</ele>
        <time>2023-05-13T08:18:21Z</time>
      </trkpt>
      <trkpt lat="48.29349" lon="2.59648">
        <ele>110.47</ele>
        <time>2023-05-13T08:18:28Z</time>
      </trkpt>
      <trkpt lat="48.29352" lon="2.59633">
        <ele>110.43</ele>
        <time>2023-05-13T08:18:34Z</time>
      </trkpt>
      <trkpt lat="48.29351" lon="2.59619">
        <ele>110.83</ele>
        <time>2023-05-13T08:18:46Z</time>
      </trkpt>
      <trkpt lat="48.29349" lon="2.59606">
        <ele>107.81</ele>
        <time>2023-05-13T08:18:58Z</time>
      </trkpt>
      <trkpt lat="48.29351" lon="2.59592">
        <ele>111.17</ele>
        <time>2023-05-13T08:19:07Z</time>
      </trkpt>
      <trkpt lat="48.29355" lon="2.5958">
        <ele>112.07</ele>
        <time>2023-05-13T08:19:16Z</time>
      </trkpt>
      <trkpt lat="48.29357" lon="2.59566">
        <ele>113.26</ele>
        <time>2023-05-13T08:19:24Z</time>
      </trkpt>
      <trkpt lat="48.29363" lon="2.59554">
        <ele>115.24</ele>
        <time>2023-05-13T08:19:34Z</time>
      </trkpt>
      <trkpt lat="48.29369" lon="2.59542">
        <ele>116.51</ele>
        <time>2023-05-13T08:19:43Z</time>
      </trkpt>
      <trkpt lat="48.29375" lon="2.5953">
        <ele>115.34</ele>
        <time>2023-05-13T08:19:54Z</time>
      </trkpt>
      <trkpt lat="48.29381" lon="2.5952">
        <ele>118.63</ele>
        <time>2023-05-13T08:20:23Z</time>
      </trkpt>
      <trkpt lat="48.29378" lon="2.59506">
        <ele>119.73</ele>
        <time>2023-05-13T08:20:31Z</time>
      </trkpt>
      <trkpt lat="48.29375" lon="2.59492">
        <ele>120.04</ele>
        <time>2023-05-13T08:20:45Z</time>
      </trkpt>
      <trkpt lat="48.29381" lon="2.5948">
        <ele>119.13</ele>
        <time>2023-05-13T08:21:32Z</time>
      </trkpt>
      <trkpt lat="48.29373" lon="2.59471">
        <ele>119.67</ele>
        <time>2023-05-13T08:21:53Z</time>
      </trkpt>
      <trkpt lat="48.29365" lon="2.59466">
        <ele>117.69</ele>
        <time>2023-05-13T08:22:32Z</time>
      </trkpt>
      <trkpt lat="48.29359" lon="2.59465">
        <ele>120.88</ele>
        <time>2023-05-13T08:24:33Z</time>
      </trkpt>
      <trkpt lat="48.29353" lon="2.59475">
        <ele>120.07</ele>
        <time>2023-05-13T08:25:18Z</time>
      </trkpt>
      <trkpt lat="48.29361" lon="2.5947">
        <ele>121.27</ele>
        <time>2023-05-13T08:26:59Z</time>
      </trkpt>
      <trkpt lat="48.29357" lon="2.59461">
        <ele>119.82</ele>
        <time>2023-05-13T08:29:00Z</time>
      </trkpt>
      <trkpt lat="48.29362" lon="2.59467">
        <ele>119.26</ele>
        <time>2023-05-13T08:31:01Z</time>
      </trkpt>
      <trkpt lat="48.29359" lon="2.59465">
        <ele>122.16</ele>
        <time>2023-05-13T08:33:02Z</time>
      </trkpt>
      <trkpt lat="48.29357" lon="2.59469">
        <ele>123.39</ele>
        <time>2023-05-13T08:35:03Z</time>
      </trkpt>
      <trkpt lat="48.29352" lon="2.59461">
        <ele>125.93</ele>
        <time>2023-05-13T08:37:04Z</time>
      </trkpt>
      <trkpt lat="48.2936" lon="2.59468">
        <ele>127.71</ele>
        <time>2023-05-13T08:38:54Z</time>
      </trkpt>
      <trkpt lat="48.29359" lon="2.59463">
        <ele>128.93</ele>
        <time>2023-05-13T08:40:54Z</time>
      </trkpt>
      <trkpt lat="48.29355" lon="2.59465">
        <ele>131.28</ele>
        <time>2023-05-13T08:42:55Z</time>
      </trkpt>
      <trkpt lat="48.29361" lon="2.59472">
        <ele>125.6</ele>
        <time>2023-05-13T08:44:56Z</time>
      </trkpt>
      <trkpt lat="48.29367" lon="2.59472">
        <ele>122.01</ele>
        <time>2023-05-13T08:46:57Z</time>
      </trkpt>
      <trkpt lat="48.29361" lon="2.59463">
        <ele>124.25</ele>
        <time>2023-05-13T08:48:58Z</time>
      </trkpt>
      <trkpt lat="48.29358" lon="2.59465">
        <ele>124.32</ele>
        <time>2023-05-13T08:50:59Z</time>
      </trkpt>
      <trkpt lat="48.29353" lon="2.59458">
        <ele>125.73</ele>
        <time>2023-05-13T08:52:59Z</time>
      </trkpt>
      <trkpt lat="48.2935" lon="2.59462">
        <ele>124.97</ele>
        <time>2023-05-13T08:55:00Z</time>
      </trkpt>
      <trkpt lat="48.29358" lon="2.5947">
        <ele>126.06</ele>
        <time>2023-05-13T08:56:40Z</time>
      </trkpt>
      <trkpt lat="48.29356" lon="2.59469">
        <ele>122.7</ele>
        <time>2023-05-13T08:58:41Z</time>
      </trkpt>
      <trkpt lat="48.29358" lon="2.59465">
        <ele>122.51</ele>
        <time>2023-05-13T09:00:42Z</time>
      </trkpt>
      <trkpt lat="48.2936" lon="2.59471">
        <ele>118.99</ele>
        <time>2023-05-13T09:02:43Z</time>
      </trkpt>
      <trkpt lat="48.29357" lon="2.59473">
        <ele>117.07</ele>
        <time>2023-05-13T09:04:44Z</time>
      </trkpt>
      <trkpt lat="48.29357" lon="2.59472">
        <ele>118.11</ele>
        <time>2023-05-13T09:06:44Z</time>
      </trkpt>
      <trkpt lat="48.29355" lon="2.59462">
        <ele>118.6</ele>
        <time>2023-05-13T09:08:45Z</time>
      </trkpt>
      <trkpt lat="48.29355" lon="2.59464">
        <ele>118.92</ele>
        <time>2023-05-13T09:10:46Z</time>
      </trkpt>
      <trkpt lat="48.29358" lon="2.59461">
        <ele>122.58</ele>
        <time>2023-05-13T09:12:48Z</time>
      </trkpt>
      <trkpt lat="48.29367" lon="2.59464">
        <ele>121.96</ele>
        <time>2023-05-13T09:13:09Z</time>
      </trkpt>
      <trkpt lat="48.29373" lon="2.59453">
        <ele>120.68</ele>
        <time>2023-05-13T09:13:39Z</time>
      </trkpt>
      <trkpt lat="48.29375" lon="2.59439">
        <ele>120.49</ele>
        <time>2023-05-13T09:13:51Z</time>
      </trkpt>
      <trkpt lat="48.29375" lon="2.59425">
        <ele>121.06</ele>
        <time>2023-05-13T09:14:03Z</time>
      </trkpt>
      <trkpt lat="48.29371" lon="2.59412">
        <ele>121.29</ele>
        <time>2023-05-13T09:14:09Z</time>
      </trkpt>
      <trkpt lat="48.29369" lon="2.59397">
        <ele>121.14</ele>
        <time>2023-05-13T09:14:16Z</time>
      </trkpt>
      <trkpt lat="48.29365" lon="2.59383">
        <ele>119.79</ele>
        <time>2023-05-13T09:14:39Z</time>
      </trkpt>
      <trkpt lat="48.29359" lon="2.59371">
        <ele>119.73</ele>
        <time>2023-05-13T09:14:47Z</time>
      </trkpt>
      <trkpt lat="48.29356" lon="2.59356">
        <ele>120.34</ele>
        <time>2023-05-13T09:14:55Z</time>
      </trkpt>
      <trkpt lat="48.29352" lon="2.59344">
        <ele>120.62</ele>
        <time>2023-05-13T09:15:03Z</time>
      </trkpt>
      <trkpt lat="48.29351" lon="2.59329">
        <ele>120.65</ele>
        <time>2023-05-13T09:15:13Z</time>
      </trkpt>
      <trkpt lat="48.29344" lon="2.59319">
        <ele>119.95</ele>
        <time>2023-05-13T09:15:57Z</time>
      </trkpt>
      <trkpt lat="48.29339" lon="2.59306">
        <ele>119.25</ele>
        <time>2023-05-13T09:16:05Z</time>
      </trkpt>
      <trkpt lat="48.29334" lon="2.59293">
        <ele>120.61</ele>
        <time>2023-05-13T09:16:18Z</time>
      </trkpt>
      <trkpt lat="48.29344" lon="2.59293">
        <ele>120.26</ele>
        <time>2023-05-13T09:16:42Z</time>
      </trkpt>
      <trkpt lat="48.29353" lon="2.5929">
        <ele>122.23</ele>
        <time>2023-05-13T09:16:54Z</time>
      </trkpt>
      <trkpt lat="48.29361" lon="2.5928">
        <ele>122.33</ele>
        <time>2023-05-13T09:17:16Z</time>
      </trkpt>
      <trkpt lat="48.29366" lon="2.59268">
        <ele>121.93</ele>
        <time>2023-05-13T09:17:22Z</time>
      </trkpt>
      <trkpt lat="48.29368" lon="2.59254">
        <ele>120.96</ele>
        <time>2023-05-13T09:17:31Z</time>
      </trkpt>
      <trkpt lat="48.29364" lon="2.59241">
        <ele>121.27</ele>
        <time>2023-05-13T09:17:38Z</time>
      </trkpt>
      <trkpt lat="48.2936" lon="2.59228">
        <ele>119.49</ele>
        <time>2023-05-13T09:17:48Z</time>
      </trkpt>
      <trkpt lat="48.29364" lon="2.59215">
        <ele>119.28</ele>
        <time>2023-05-13T09:17:57Z</time>
      </trkpt>
      <trkpt lat="48.29372" lon="2.59205">
        <ele>120.79</ele>
        <time>2023-05-13T09:18:14Z</time>
      </trkpt>
      <trkpt lat="48.2938" lon="2.59198">
        <ele>121.43</ele>
        <time>2023-05-13T09:18:22Z</time>
      </trkpt>
      <trkpt lat="48.29389" lon="2.59195">
        <ele>122.4</ele>
        <time>2023-05-13T09:18:33Z</time>
      </trkpt>
      <trkpt lat="48.29398" lon="2.59196">
        <ele>124.33</ele>
        <time>2023-05-13T09:18:59Z</time>
      </trkpt>
      <trkpt lat="48.29407" lon="2.59197">
        <ele>125.65</ele>
        <time>2023-05-13T09:19:12Z</time>
      </trkpt>
      <trkpt lat="48.29416" lon="2.59203">
        <ele>126.63</ele>
        <time>2023-05-13T09:19:49Z</time>
      </trkpt>
      <trkpt lat="48.29424" lon="2.59211">
        <ele>127.68</ele>
        <time>2023-05-13T09:20:07Z</time>
      </trkpt>
      <trkpt lat="48.29418" lon="2.59222">
        <ele>130.35</ele>
        <time>2023-05-13T09:20:34Z</time>
      </trkpt>
      <trkpt lat="48.29415" lon="2.59235">
        <ele>133.31</ele>
        <time>2023-05-13T09:20:57Z</time>
      </trkpt>
      <trkpt lat="48.29414" lon="2.59249">
        <ele>135.11</ele>
        <time>2023-05-13T09:21:07Z</time>
      </trkpt>
      <trkpt lat="48.29418" lon="2.59261">
        <ele>135.65</ele>
        <time>2023-05-13T09:21:25Z</time>
      </trkpt>
      <trkpt lat="48.29411" lon="2.59272">
        <ele>135.17</ele>
        <time>2023-05-13T09:21:51Z</time>
      </trkpt>
      <trkpt lat="48.29406" lon="2.59283">
        <ele>136.84</ele>
        <time>2023-05-13T09:22:23Z</time>
      </trkpt>
      <trkpt lat="48.29403" lon="2.59297">
        <ele>135.94</ele>
        <time>2023-05-13T09:22:48Z</time>
      </trkpt>
      <trkpt lat="48.29404" lon="2.59311">
        <ele>135.83</ele>
        <time>2023-05-13T09:22:58Z</time>
      </trkpt>
      <trkpt lat="48.29403" lon="2.59325">
        <ele>136.59</ele>
        <time>2023-05-13T09:23:58Z</time>
      </trkpt>
      <trkpt lat="48.29403" lon="2.59311">
        <ele>134.89</ele>
        <time>2023-05-13T09:24:23Z</time>
      </trkpt>
      <trkpt lat="48.29408" lon="2.593">
        <ele>135.01</ele>
        <time>2023-05-13T09:24:33Z</time>
      </trkpt>
      <trkpt lat="48.29416" lon="2.59292">
        <ele>135.36</ele>
        <time>2023-05-13T09:24:41Z</time>
      </trkpt>
      <trkpt lat="48.29424" lon="2.59286">
        <ele>136.19</ele>
        <time>2023-05-13T09:24:50Z</time>
      </trkpt>
      <trkpt lat="48.29434" lon="2.59283">
        <ele>136.08</ele>
        <time>2023-05-13T09:24:58Z</time>
      </trkpt>
      <trkpt lat="48.29443" lon="2.59288">
        <ele>138.72</ele>
        <time>2023-05-13T09:25:59Z</time>
      </trkpt>
      <trkpt lat="48.29452" lon="2.59288">
        <ele>136.09</ele>
        <time>2023-05-13T09:26:13Z</time>
      </trkpt>
      <trkpt lat="48.29443" lon="2.59287">
        <ele>137.24</ele>
        <time>2023-05-13T09:26:58Z</time>
      </trkpt>
      <trkpt lat="48.29434" lon="2.59286">
        <ele>136.74</ele>
        <time>2023-05-13T09:27:06Z</time>
      </trkpt>
      <trkpt lat="48.2943" lon="2.59273">
        <ele>136.99</ele>
        <time>2023-05-13T09:27:16Z</time>
      </trkpt>
      <trkpt lat="48.29429" lon="2.59259">
        <ele>136.37</ele>
        <time>2023-05-13T09:27:25Z</time>
      </trkpt>
      <trkpt lat="48.29433" lon="2.59246">
        <ele>136.92</ele>
        <time>2023-05-13T09:27:33Z</time>
      </trkpt>
      <trkpt lat="48.29441" lon="2.59237">
        <ele>135.82</ele>
        <time>2023-05-13T09:27:40Z</time>
      </trkpt>
      <trkpt lat="48.29448" lon="2.59227">
        <ele>135.21</ele>
        <time>2023-05-13T09:27:48Z</time>
      </trkpt>
      <trkpt lat="48.29454" lon="2.59215">
        <ele>136.33</ele>
        <time>2023-05-13T09:27:57Z</time>
      </trkpt>
      <trkpt lat="48.2946" lon="2.59203">
        <ele>137.28</ele>
        <time>2023-05-13T09:28:08Z</time>
      </trkpt>
      <trkpt lat="48.29455" lon="2.59191">
        <ele>136.19</ele>
        <time>2023-05-13T09:28:17Z</time>
      </trkpt>
      <trkpt lat="48.29453" lon="2.59177">
        <ele>136.43</ele>
        <time>2023-05-13T09:28:24Z</time>
      </trkpt>
      <trkpt lat="48.29451" lon="2.59163">
        <ele>134.93</ele>
        <time>2023-05-13T09:28:31Z</time>
      </trkpt>
      <trkpt lat="48.29454" lon="2.59148">
        <ele>134.53</ele>
        <time>2023-05-13T09:28:38Z</time>
      </trkpt>
      <trkpt lat="48.29459" lon="2.59137">
        <ele>133.54</ele>
        <time>2023-05-13T09:28:43Z</time>
      </trkpt>
      <trkpt lat="48.29465" lon="2.59125">
        <ele>135.31</ele>
        <time>2023-05-13T09:28:49Z</time>
      </trkpt>
      <trkpt lat="48.2947" lon="2.59113">
        <ele>136.79</ele>
        <time>2023-05-13T09:28:59Z</time>
      </trkpt>
      <trkpt lat="48.29476" lon="2.59101">
        <ele>136.02</ele>
        <time>2023-05-13T09:29:05Z</time>
      </trkpt>
      <trkpt lat="48.29481" lon="2.59089">
        <ele>135.5</ele>
        <time>2023-05-13T09:29:12Z</time>
      </trkpt>
      <trkpt lat="48.29489" lon="2.59081">
        <ele>136.63</ele>
        <time>2023-05-13T09:29:21Z</time>
      </trkpt>
      <trkpt lat="48.29498" lon="2.59077">
        <ele>136.17</ele>
        <time>2023-05-13T09:30:30Z</time>
      </trkpt>
      <trkpt lat="48.29499" lon="2.59092">
        <ele>133.96</ele>
        <time>2023-05-13T09:31:01Z</time>
      </trkpt>
      <trkpt lat="48.29501" lon="2.59108">
        <ele>133.49</ele>
        <time>2023-05-13T09:31:06Z</time>
      </trkpt>
      <trkpt lat="48.29504" lon="2.59122">
        <ele>135.64</ele>
        <time>2023-05-13T09:31:12Z</time>
      </trkpt>
      <trkpt lat="48.29511" lon="2.59134">
        <ele>137.26</ele>
        <time>2023-05-13T09:31:21Z</time>
      </trkpt>
      <trkpt lat="48.29518" lon="2.59143">
        <ele>137.62</ele>
        <time>2023-05-13T09:31:29Z</time>
      </trkpt>
      <trkpt lat="48.29522" lon="2.59157">
        <ele>138.33</ele>
        <time>2023-05-13T09:31:43Z</time>
      </trkpt>
      <trkpt lat="48.29526" lon="2.59169">
        <ele>138.64</ele>
        <time>2023-05-13T09:31:53Z</time>
      </trkpt>
      <trkpt lat="48.29528" lon="2.59183">
        <ele>140.63</ele>
        <time>2023-05-13T09:32:00Z</time>
      </trkpt>
      <trkpt lat="48.29529" lon="2.59198">
        <ele>141.36</ele>
        <time>2023-05-13T09:32:09Z</time>
      </trkpt>
      <trkpt lat="48.29538" lon="2.59198">
        <ele>139.69</ele>
        <time>2023-05-13T09:32:52Z</time>
      </trkpt>
      <trkpt lat="48.29541" lon="2.59211">
        <ele>139.05</ele>
        <time>2023-05-13T09:33:06Z</time>
      </trkpt>
      <trkpt lat="48.29538" lon="2.59224">
        <ele>137.79</ele>
        <time>2023-05-13T09:33:15Z</time>
      </trkpt>
      <trkpt lat="48.29536" lon="2.59239">
        <ele>137.07</ele>
        <time>2023-05-13T09:33:24Z</time>
      </trkpt>
      <trkpt lat="48.29534" lon="2.59252">
        <ele>136.87</ele>
        <time>2023-05-13T09:33:35Z</time>
      </trkpt>
      <trkpt lat="48.29536" lon="2.59266">
        <ele>137</ele>
        <time>2023-05-13T09:33:46Z</time>
      </trkpt>
      <trkpt lat="48.29528" lon="2.59273">
        <ele>135.09</ele>
        <time>2023-05-13T09:33:59Z</time>
      </trkpt>
      <trkpt lat="48.29522" lon="2.59285">
        <ele>133.77</ele>
        <time>2023-05-13T09:34:07Z</time>
      </trkpt>
      <trkpt lat="48.29526" lon="2.59299">
        <ele>134.67</ele>
        <time>2023-05-13T09:34:16Z</time>
      </trkpt>
      <trkpt lat="48.29531" lon="2.59311">
        <ele>134.24</ele>
        <time>2023-05-13T09:34:24Z</time>
      </trkpt>
      <trkpt lat="48.29541" lon="2.59309">
        <ele>133.35</ele>
        <time>2023-05-13T09:34:31Z</time>
      </trkpt>
      <trkpt lat="48.2955" lon="2.59304">
        <ele>130.71</ele>
        <time>2023-05-13T09:34:40Z</time>
      </trkpt>
      <trkpt lat="48.29559" lon="2.59303">
        <ele>129.55</ele>
        <time>2023-05-13T09:34:49Z</time>
      </trkpt>
      <trkpt lat="48.29568" lon="2.59301">
        <ele>128.46</ele>
        <time>2023-05-13T09:34:59Z</time>
      </trkpt>
      <trkpt lat="48.29576" lon="2.59293">
        <ele>127.35</ele>
        <time>2023-05-13T09:35:08Z</time>
      </trkpt>
      <trkpt lat="48.29585" lon="2.59299">
        <ele>126.07</ele>
        <time>2023-05-13T09:35:17Z</time>
      </trkpt>
      <trkpt lat="48.29594" lon="2.59292">
        <ele>125.7</ele>
        <time>2023-05-13T09:35:38Z</time>
      </trkpt>
      <trkpt lat="48.29603" lon="2.59288">
        <ele>123.65</ele>
        <time>2023-05-13T09:35:47Z</time>
      </trkpt>
      <trkpt lat="48.29612" lon="2.59294">
        <ele>121.31</ele>
        <time>2023-05-13T09:35:59Z</time>
      </trkpt>
      <trkpt lat="48.29619" lon="2.59303">
        <ele>120.54</ele>
        <time>2023-05-13T09:36:08Z</time>
      </trkpt>
      <trkpt lat="48.29628" lon="2.59299">
        <ele>118.29</ele>
        <time>2023-05-13T09:36:15Z</time>
      </trkpt>
      <trkpt lat="48.29634" lon="2.59288">
        <ele>118.7</ele>
        <time>2023-05-13T09:36:22Z</time>
      </trkpt>
      <trkpt lat="48.2964" lon="2.59277">
        <ele>115.52</ele>
        <time>2023-05-13T09:36:56Z</time>
      </trkpt>
      <trkpt lat="48.29646" lon="2.59265">
        <ele>115.16</ele>
        <time>2023-05-13T09:37:05Z</time>
      </trkpt>
      <trkpt lat="48.29654" lon="2.59258">
        <ele>114.92</ele>
        <time>2023-05-13T09:37:14Z</time>
      </trkpt>
      <trkpt lat="48.29663" lon="2.59254">
        <ele>115.58</ele>
        <time>2023-05-13T09:37:30Z</time>
      </trkpt>
      <trkpt lat="48.2967" lon="2.59246">
        <ele>115.66</ele>
        <time>2023-05-13T09:37:39Z</time>
      </trkpt>
      <trkpt lat="48.29677" lon="2.59236">
        <ele>115.49</ele>
        <time>2023-05-13T09:37:46Z</time>
      </trkpt>
      <trkpt lat="48.29684" lon="2.59228">
        <ele>118.22</ele>
        <time>2023-05-13T09:37:58Z</time>
      </trkpt>
      <trkpt lat="48.29694" lon="2.59224">
        <ele>119.24</ele>
        <time>2023-05-13T09:38:14Z</time>
      </trkpt>
      <trkpt lat="48.29703" lon="2.59226">
        <ele>119.74</ele>
        <time>2023-05-13T09:38:25Z</time>
      </trkpt>
      <trkpt lat="48.29712" lon="2.5922">
        <ele>120.15</ele>
        <time>2023-05-13T09:38:31Z</time>
      </trkpt>
      <trkpt lat="48.29721" lon="2.59216">
        <ele>118.41</ele>
        <time>2023-05-13T09:38:45Z</time>
      </trkpt>
      <trkpt lat="48.29728" lon="2.59205">
        <ele>117.35</ele>
        <time>2023-05-13T09:38:53Z</time>
      </trkpt>
      <trkpt lat="48.29735" lon="2.59196">
        <ele>115.98</ele>
        <time>2023-05-13T09:39:17Z</time>
      </trkpt>
      <trkpt lat="48.29744" lon="2.59192">
        <ele>115.21</ele>
        <time>2023-05-13T09:39:30Z</time>
      </trkpt>
      <trkpt lat="48.29753" lon="2.59187">
        <ele>114.07</ele>
        <time>2023-05-13T09:39:40Z</time>
      </trkpt>
      <trkpt lat="48.29762" lon="2.59182">
        <ele>114.6</ele>
        <time>2023-05-13T09:39:57Z</time>
      </trkpt>
      <trkpt lat="48.29771" lon="2.59179">
        <ele>114.01</ele>
        <time>2023-05-13T09:40:07Z</time>
      </trkpt>
      <trkpt lat="48.29781" lon="2.59178">
        <ele>113.62</ele>
        <time>2023-05-13T09:40:17Z</time>
      </trkpt>
      <trkpt lat="48.29789" lon="2.5917">
        <ele>116.55</ele>
        <time>2023-05-13T09:40:59Z</time>
      </trkpt>
      <trkpt lat="48.29798" lon="2.59164">
        <ele>116.37</ele>
        <time>2023-05-13T09:41:10Z</time>
      </trkpt>
      <trkpt lat="48.29807" lon="2.5916">
        <ele>115.99</ele>
        <time>2023-05-13T09:41:20Z</time>
      </trkpt>
      <trkpt lat="48.29817" lon="2.59158">
        <ele>116.58</ele>
        <time>2023-05-13T09:41:26Z</time>
      </trkpt>
      <trkpt lat="48.29826" lon="2.5915">
        <ele>117.46</ele>
        <time>2023-05-13T09:41:32Z</time>
      </trkpt>
      <trkpt lat="48.29835" lon="2.59146">
        <ele>116.85</ele>
        <time>2023-05-13T09:41:41Z</time>
      </trkpt>
      <trkpt lat="48.29844" lon="2.59139">
        <ele>115.8</ele>
        <time>2023-05-13T09:41:47Z</time>
      </trkpt>
      <trkpt lat="48.29854" lon="2.59147">
        <ele>116.79</ele>
        <time>2023-05-13T09:42:04Z</time>
      </trkpt>
      <trkpt lat="48.29864" lon="2.59151">
        <ele>117.22</ele>
        <time>2023-05-13T09:42:10Z</time>
      </trkpt>
      <trkpt lat="48.2987" lon="2.59163">
        <ele>116.73</ele>
        <time>2023-05-13T09:42:21Z</time>
      </trkpt>
      <trkpt lat="48.2987" lon="2.59176">
        <ele>115.8</ele>
        <time>2023-05-13T09:42:30Z</time>
      </trkpt>
      <trkpt lat="48.29871" lon="2.59191">
        <ele>117.45</ele>
        <time>2023-05-13T09:42:38Z</time>
      </trkpt>
      <trkpt lat="48.29875" lon="2.59204">
        <ele>119.55</ele>
        <time>2023-05-13T09:42:47Z</time>
      </trkpt>
      <trkpt lat="48.29877" lon="2.59218">
        <ele>119.24</ele>
        <time>2023-05-13T09:43:05Z</time>
      </trkpt>
      <trkpt lat="48.29883" lon="2.5923">
        <ele>119.06</ele>
        <time>2023-05-13T09:43:25Z</time>
      </trkpt>
      <trkpt lat="48.29889" lon="2.59241">
        <ele>119.3</ele>
        <time>2023-05-13T09:43:30Z</time>
      </trkpt>
      <trkpt lat="48.29898" lon="2.59253">
        <ele>119.57</ele>
        <time>2023-05-13T09:43:34Z</time>
      </trkpt>
      <trkpt lat="48.29906" lon="2.59262">
        <ele>119.68</ele>
        <time>2023-05-13T09:43:38Z</time>
      </trkpt>
      <trkpt lat="48.29914" lon="2.59271">
        <ele>119.48</ele>
        <time>2023-05-13T09:43:46Z</time>
      </trkpt>
      <trkpt lat="48.29922" lon="2.59277">
        <ele>120.51</ele>
        <time>2023-05-13T09:43:53Z</time>
      </trkpt>
      <trkpt lat="48.29928" lon="2.59287">
        <ele>120.62</ele>
        <time>2023-05-13T09:43:59Z</time>
      </trkpt>
      <trkpt lat="48.29936" lon="2.59295">
        <ele>120.84</ele>
        <time>2023-05-13T09:44:10Z</time>
      </trkpt>
      <trkpt lat="48.29935" lon="2.59309">
        <ele>119.7</ele>
        <time>2023-05-13T09:44:27Z</time>
      </trkpt>
      <trkpt lat="48.29943" lon="2.59317">
        <ele>121.07</ele>
        <time>2023-05-13T09:44:45Z</time>
      </trkpt>
      <trkpt lat="48.29952" lon="2.59322">
        <ele>120.91</ele>
        <time>2023-05-13T09:44:52Z</time>
      </trkpt>
      <trkpt lat="48.29961" lon="2.5933">
        <ele>120.74</ele>
        <time>2023-05-13T09:44:59Z</time>
      </trkpt>
      <trkpt lat="48.29968" lon="2.59338">
        <ele>120.7</ele>
        <time>2023-05-13T09:45:10Z</time>
      </trkpt>
      <trkpt lat="48.29977" lon="2.59344">
        <ele>121.54</ele>
        <time>2023-05-13T09:45:19Z</time>
      </trkpt>
      <trkpt lat="48.29987" lon="2.59346">
        <ele>121.12</ele>
        <time>2023-05-13T09:45:32Z</time>
      </trkpt>
      <trkpt lat="48.29996" lon="2.59346">
        <ele>123.07</ele>
        <time>2023-05-13T09:45:59Z</time>
      </trkpt>
      <trkpt lat="48.30005" lon="2.5935">
        <ele>126</ele>
        <time>2023-05-13T09:46:30Z</time>
      </trkpt>
      <trkpt lat="48.30006" lon="2.59364">
        <ele>126.81</ele>
        <time>2023-05-13T09:46:39Z</time>
      </trkpt>
      <trkpt lat="48.30009" lon="2.59378">
        <ele>129.68</ele>
        <time>2023-05-13T09:46:47Z</time>
      </trkpt>
      <trkpt lat="48.30006" lon="2.59391">
        <ele>130.93</ele>
        <time>2023-05-13T09:46:56Z</time>
      </trkpt>
      <trkpt lat="48.30005" lon="2.59406">
        <ele>132.39</ele>
        <time>2023-05-13T09:47:07Z</time>
      </trkpt>
      <trkpt lat="48.3" lon="2.59418">
        <ele>133.75</ele>
        <time>2023-05-13T09:47:18Z</time>
      </trkpt>
      <trkpt lat="48.29992" lon="2.59427">
        <ele>133.38</ele>
        <time>2023-05-13T09:47:27Z</time>
      </trkpt>
      <trkpt lat="48.29991" lon="2.5944">
        <ele>134.25</ele>
        <time>2023-05-13T09:48:45Z</time>
      </trkpt>
      <trkpt lat="48.29982" lon="2.59438">
        <ele>134.4</ele>
        <time>2023-05-13T09:49:08Z</time>
      </trkpt>
      <trkpt lat="48.29974" lon="2.59447">
        <ele>135.04</ele>
        <time>2023-05-13T09:49:33Z</time>
      </trkpt>
      <trkpt lat="48.29965" lon="2.59451">
        <ele>134.59</ele>
        <time>2023-05-13T09:50:54Z</time>
      </trkpt>
      <trkpt lat="48.29958" lon="2.59441">
        <ele>131.79</ele>
        <time>2023-05-13T09:51:07Z</time>
      </trkpt>
      <trkpt lat="48.29951" lon="2.5945">
        <ele>127.89</ele>
        <time>2023-05-13T09:51:33Z</time>
      </trkpt>
      <trkpt lat="48.29947" lon="2.59463">
        <ele>125.18</ele>
        <time>2023-05-13T09:51:47Z</time>
      </trkpt>
      <trkpt lat="48.29939" lon="2.59472">
        <ele>124.5</ele>
        <time>2023-05-13T09:51:58Z</time>
      </trkpt>
      <trkpt lat="48.29946" lon="2.59482">
        <ele>119.92</ele>
        <time>2023-05-13T09:52:13Z</time>
      </trkpt>
      <trkpt lat="48.29949" lon="2.59495">
        <ele>120</ele>
        <time>2023-05-13T09:52:18Z</time>
      </trkpt>
      <trkpt lat="48.29946" lon="2.5951">
        <ele>121.88</ele>
        <time>2023-05-13T09:52:23Z</time>
      </trkpt>
      <trkpt lat="48.29942" lon="2.59525">
        <ele>121.95</ele>
        <time>2023-05-13T09:52:27Z</time>
      </trkpt>
      <trkpt lat="48.29937" lon="2.59538">
        <ele>123.86</ele>
        <time>2023-05-13T09:52:35Z</time>
      </trkpt>
      <trkpt lat="48.29935" lon="2.59553">
        <ele>119.98</ele>
        <time>2023-05-13T09:53:04Z</time>
      </trkpt>
      <trkpt lat="48.29929" lon="2.59565">
        <ele>119.57</ele>
        <time>2023-05-13T09:53:14Z</time>
      </trkpt>
      <trkpt lat="48.29921" lon="2.59574">
        <ele>121.23</ele>
        <time>2023-05-13T09:53:20Z</time>
      </trkpt>
      <trkpt lat="48.29913" lon="2.59581">
        <ele>121.18</ele>
        <time>2023-05-13T09:53:31Z</time>
      </trkpt>
      <trkpt lat="48.29905" lon="2.59588">
        <ele>120.59</ele>
        <time>2023-05-13T09:53:38Z</time>
      </trkpt>
      <trkpt lat="48.29898" lon="2.59598">
        <ele>119.22</ele>
        <time>2023-05-13T09:53:45Z</time>
      </trkpt>
      <trkpt lat="48.29891" lon="2.59608">
        <ele>119.29</ele>
        <time>2023-05-13T09:53:51Z</time>
      </trkpt>
      <trkpt lat="48.29882" lon="2.59614">
        <ele>118.89</ele>
        <time>2023-05-13T09:53:59Z</time>
      </trkpt>
      <trkpt lat="48.29873" lon="2.59619">
        <ele>118.58</ele>
        <time>2023-05-13T09:54:07Z</time>
      </trkpt>
      <trkpt lat="48.29864" lon="2.59627">
        <ele>118.15</ele>
        <time>2023-05-13T09:54:15Z</time>
      </trkpt>
      <trkpt lat="48.29857" lon="2.59635">
        <ele>115.39</ele>
        <time>2023-05-13T09:54:22Z</time>
      </trkpt>
      <trkpt lat="48.29849" lon="2.59644">
        <ele>116.05</ele>
        <time>2023-05-13T09:54:31Z</time>
      </trkpt>
      <trkpt lat="48.29841" lon="2.59652">
        <ele>114.4</ele>
        <time>2023-05-13T09:54:40Z</time>
      </trkpt>
      <trkpt lat="48.29832" lon="2.59646">
        <ele>113.99</ele>
        <time>2023-05-13T09:54:48Z</time>
      </trkpt>
      <trkpt lat="48.2983" lon="2.59631">
        <ele>112.49</ele>
        <time>2023-05-13T09:54:57Z</time>
      </trkpt>
      <trkpt lat="48.29827" lon="2.59617">
        <ele>113.44</ele>
        <time>2023-05-13T09:55:05Z</time>
      </trkpt>
      <trkpt lat="48.29825" lon="2.59603">
        <ele>112.68</ele>
        <time>2023-05-13T09:55:13Z</time>
      </trkpt>
      <trkpt lat="48.29821" lon="2.5959">
        <ele>112.25</ele>
        <time>2023-05-13T09:55:21Z</time>
      </trkpt>
      <trkpt lat="48.29818" lon="2.59575">
        <ele>111.29</ele>
        <time>2023-05-13T09:55:30Z</time>
      </trkpt>
      <trkpt lat="48.29815" lon="2.59561">
        <ele>110.31</ele>
        <time>2023-05-13T09:55:38Z</time>
      </trkpt>
      <trkpt lat="48.29812" lon="2.59547">
        <ele>110.58</ele>
        <time>2023-05-13T09:55:45Z</time>
      </trkpt>
      <trkpt lat="48.29809" lon="2.59533">
        <ele>110.6</ele>
        <time>2023-05-13T09:55:54Z</time>
      </trkpt>
      <trkpt lat="48.29806" lon="2.5952">
        <ele>111.32</ele>
        <time>2023-05-13T09:56:01Z</time>
      </trkpt>
      <trkpt lat="48.29804" lon="2.59507">
        <ele>111.69</ele>
        <time>2023-05-13T09:56:09Z</time>
      </trkpt>
      <trkpt lat="48.29802" lon="2.59492">
        <ele>109.86</ele>
        <time>2023-05-13T09:56:18Z</time>
      </trkpt>
      <trkpt lat="48.29798" lon="2.59479">
        <ele>110.57</ele>
        <time>2023-05-13T09:56:26Z</time>
      </trkpt>
      <trkpt lat="48.29792" lon="2.59468">
        <ele>111.97</ele>
        <time>2023-05-13T09:56:34Z</time>
      </trkpt>
      <trkpt lat="48.29788" lon="2.59455">
        <ele>111.91</ele>
        <time>2023-05-13T09:56:43Z</time>
      </trkpt>
      <trkpt lat="48.29789" lon="2.59441">
        <ele>112.08</ele>
        <time>2023-05-13T09:56:50Z</time>
      </trkpt>
      <trkpt lat="48.29781" lon="2.59446">
        <ele>112.08</ele>
        <time>2023-05-13T09:57:06Z</time>
      </trkpt>
      <trkpt lat="48.29774" lon="2.59457">
        <ele>112.03</ele>
        <time>2023-05-13T09:57:13Z</time>
      </trkpt>
      <trkpt lat="48.29767" lon="2.59466">
        <ele>112.4</ele>
        <time>2023-05-13T09:57:20Z</time>
      </trkpt>
      <trkpt lat="48.2976" lon="2.59476">
        <ele>110.56</ele>
        <time>2023-05-13T09:57:29Z</time>
      </trkpt>
      <trkpt lat="48.29753" lon="2.59486">
        <ele>109.29</ele>
        <time>2023-05-13T09:57:36Z</time>
      </trkpt>
      <trkpt lat="48.29745" lon="2.59491">
        <ele>108</ele>
        <time>2023-05-13T09:57:43Z</time>
      </trkpt>
      <trkpt lat="48.29736" lon="2.59495">
        <ele>108.08</ele>
        <time>2023-05-13T09:57:50Z</time>
      </trkpt>
      <trkpt lat="48.29727" lon="2.59499">
        <ele>106.45</ele>
        <time>2023-05-13T09:57:57Z</time>
      </trkpt>
      <trkpt lat="48.29718" lon="2.59505">
        <ele>106.12</ele>
        <time>2023-05-13T09:58:05Z</time>
      </trkpt>
      <trkpt lat="48.29709" lon="2.59513">
        <ele>106.04</ele>
        <time>2023-05-13T09:58:13Z</time>
      </trkpt>
      <trkpt lat="48.297" lon="2.59516">
        <ele>106.27</ele>
        <time>2023-05-13T09:58:21Z</time>
      </trkpt>
      <trkpt lat="48.2969" lon="2.59518">
        <ele>107.39</ele>
        <time>2023-05-13T09:58:28Z</time>
      </trkpt>
      <trkpt lat="48.2968" lon="2.59515">
        <ele>109.71</ele>
        <time>2023-05-13T09:58:56Z</time>
      </trkpt>
      <trkpt lat="48.29676" lon="2.59503">
        <ele>110.58</ele>
        <time>2023-05-13T09:59:08Z</time>
      </trkpt>
      <trkpt lat="48.29673" lon="2.59489">
        <ele>110.41</ele>
        <time>2023-05-13T09:59:15Z</time>
      </trkpt>
      <trkpt lat="48.29667" lon="2.59476">
        <ele>108.79</ele>
        <time>2023-05-13T09:59:24Z</time>
      </trkpt>
      <trkpt lat="48.29659" lon="2.59466">
        <ele>107.94</ele>
        <time>2023-05-13T09:59:30Z</time>
      </trkpt>
      <trkpt lat="48.29651" lon="2.59458">
        <ele>107.96</ele>
        <time>2023-05-13T09:59:37Z</time>
      </trkpt>
      <trkpt lat="48.29642" lon="2.59455">
        <ele>108.26</ele>
        <time>2023-05-13T09:59:45Z</time>
      </trkpt>
      <trkpt lat="48.29635" lon="2.59446">
        <ele>110.31</ele>
        <time>2023-05-13T09:59:56Z</time>
      </trkpt>
      <trkpt lat="48.29632" lon="2.59433">
        <ele>111.41</ele>
        <time>2023-05-13T10:00:04Z</time>
      </trkpt>
      <trkpt lat="48.2963" lon="2.5942">
        <ele>112.19</ele>
        <time>2023-05-13T10:00:12Z</time>
      </trkpt>
      <trkpt lat="48.29632" lon="2.59406">
        <ele>114.01</ele>
        <time>2023-05-13T10:00:19Z</time>
      </trkpt>
      <trkpt lat="48.29633" lon="2.59391">
        <ele>112.61</ele>
        <time>2023-05-13T10:00:29Z</time>
      </trkpt>
      <trkpt lat="48.29632" lon="2.59377">
        <ele>111.38</ele>
        <time>2023-05-13T10:00:37Z</time>
      </trkpt>
      <trkpt lat="48.29631" lon="2.59364">
        <ele>110.66</ele>
        <time>2023-05-13T10:00:43Z</time>
      </trkpt>
      <trkpt lat="48.29628" lon="2.59351">
        <ele>108.87</ele>
        <time>2023-05-13T10:00:50Z</time>
      </trkpt>
      <trkpt lat="48.29624" lon="2.59337">
        <ele>108.34</ele>
        <time>2023-05-13T10:00:58Z</time>
      </trkpt>
      <trkpt lat="48.29623" lon="2.59322">
        <ele>108.5</ele>
        <time>2023-05-13T10:01:06Z</time>
      </trkpt>
      <trkpt lat="48.29623" lon="2.59308">
        <ele>108.82</ele>
        <time>2023-05-13T10:01:13Z</time>
      </trkpt>
      <trkpt lat="48.29627" lon="2.59294">
        <ele>108.73</ele>
        <time>2023-05-13T10:01:21Z</time>
      </trkpt>
      <trkpt lat="48.29629" lon="2.5928">
        <ele>109.5</ele>
        <time>2023-05-13T10:01:31Z</time>
      </trkpt>
      <trkpt lat="48.29625" lon="2.59293">
        <ele>109.28</ele>
        <time>2023-05-13T10:01:58Z</time>
      </trkpt>
      <trkpt lat="48.29616" lon="2.59297">
        <ele>109.77</ele>
        <time>2023-05-13T10:02:11Z</time>
      </trkpt>
      <trkpt lat="48.29607" lon="2.59292">
        <ele>110.12</ele>
        <time>2023-05-13T10:02:24Z</time>
      </trkpt>
      <trkpt lat="48.29617" lon="2.59295">
        <ele>111.51</ele>
        <time>2023-05-13T10:03:33Z</time>
      </trkpt>
      <trkpt lat="48.29622" lon="2.59306">
        <ele>111.58</ele>
        <time>2023-05-13T10:03:40Z</time>
      </trkpt>
      <trkpt lat="48.29626" lon="2.59319">
        <ele>111.58</ele>
        <time>2023-05-13T10:03:47Z</time>
      </trkpt>
      <trkpt lat="48.29626" lon="2.59333">
        <ele>111.35</ele>
        <time>2023-05-13T10:04:22Z</time>
      </trkpt>
      <trkpt lat="48.29629" lon="2.59347">
        <ele>111.89</ele>
        <time>2023-05-13T10:04:30Z</time>
      </trkpt>
      <trkpt lat="48.29631" lon="2.59361">
        <ele>112.69</ele>
        <time>2023-05-13T10:04:37Z</time>
      </trkpt>
      <trkpt lat="48.29632" lon="2.59376">
        <ele>112.62</ele>
        <time>2023-05-13T10:04:44Z</time>
      </trkpt>
      <trkpt lat="48.2963" lon="2.5939">
        <ele>113.7</ele>
        <time>2023-05-13T10:04:51Z</time>
      </trkpt>
      <trkpt lat="48.29629" lon="2.59405">
        <ele>114.7</ele>
        <time>2023-05-13T10:04:59Z</time>
      </trkpt>
      <trkpt lat="48.29628" lon="2.5942">
        <ele>115.34</ele>
        <time>2023-05-13T10:05:21Z</time>
      </trkpt>
      <trkpt lat="48.29631" lon="2.59406">
        <ele>115.83</ele>
        <time>2023-05-13T10:06:08Z</time>
      </trkpt>
      <trkpt lat="48.29631" lon="2.5939">
        <ele>116.07</ele>
        <time>2023-05-13T10:06:16Z</time>
      </trkpt>
      <trkpt lat="48.29629" lon="2.59404">
        <ele>115.33</ele>
        <time>2023-05-13T10:07:37Z</time>
      </trkpt>
      <trkpt lat="48.29628" lon="2.59419">
        <ele>114.77</ele>
        <time>2023-05-13T10:07:47Z</time>
      </trkpt>
      <trkpt lat="48.29624" lon="2.59406">
        <ele>115.43</ele>
        <time>2023-05-13T10:08:14Z</time>
      </trkpt>
      <trkpt lat="48.29622" lon="2.59392">
        <ele>115.68</ele>
        <time>2023-05-13T10:08:31Z</time>
      </trkpt>
      <trkpt lat="48.29616" lon="2.5938">
        <ele>117.28</ele>
        <time>2023-05-13T10:09:55Z</time>
      </trkpt>
      <trkpt lat="48.29607" lon="2.59378">
        <ele>117.24</ele>
        <time>2023-05-13T10:10:04Z</time>
      </trkpt>
      <trkpt lat="48.29607" lon="2.59363">
        <ele>118.12</ele>
        <time>2023-05-13T10:10:44Z</time>
      </trkpt>
      <trkpt lat="48.29611" lon="2.59351">
        <ele>116.29</ele>
        <time>2023-05-13T10:11:04Z</time>
      </trkpt>
      <trkpt lat="48.29611" lon="2.59337">
        <ele>115</ele>
        <time>2023-05-13T10:11:19Z</time>
      </trkpt>
      <trkpt lat="48.29614" lon="2.59349">
        <ele>116.26</ele>
        <time>2023-05-13T10:11:32Z</time>
      </trkpt>
      <trkpt lat="48.2962" lon="2.5936">
        <ele>115.92</ele>
        <time>2023-05-13T10:11:40Z</time>
      </trkpt>
      <trkpt lat="48.29628" lon="2.59369">
        <ele>116.16</ele>
        <time>2023-05-13T10:11:53Z</time>
      </trkpt>
      <trkpt lat="48.29635" lon="2.59358">
        <ele>116.19</ele>
        <time>2023-05-13T10:11:59Z</time>
      </trkpt>
      <trkpt lat="48.29632" lon="2.59344">
        <ele>114.63</ele>
        <time>2023-05-13T10:12:07Z</time>
      </trkpt>
      <trkpt lat="48.2963" lon="2.59331">
        <ele>114.51</ele>
        <time>2023-05-13T10:12:14Z</time>
      </trkpt>
      <trkpt lat="48.29629" lon="2.59317">
        <ele>114.16</ele>
        <time>2023-05-13T10:12:22Z</time>
      </trkpt>
      <trkpt lat="48.29626" lon="2.59304">
        <ele>113.14</ele>
        <time>2023-05-13T10:12:29Z</time>
      </trkpt>
      <trkpt lat="48.2962" lon="2.59292">
        <ele>113.57</ele>
        <time>2023-05-13T10:12:39Z</time>
      </trkpt>
      <trkpt lat="48.29611" lon="2.59288">
        <ele>112.31</ele>
        <time>2023-05-13T10:12:46Z</time>
      </trkpt>
      <trkpt lat="48.29602" lon="2.59282">
        <ele>115.53</ele>
        <time>2023-05-13T10:12:54Z</time>
      </trkpt>
      <trkpt lat="48.29592" lon="2.59286">
        <ele>116.99</ele>
        <time>2023-05-13T10:13:03Z</time>
      </trkpt>
      <trkpt lat="48.29586" lon="2.59295">
        <ele>119.93</ele>
        <time>2023-05-13T10:13:12Z</time>
      </trkpt>
      <trkpt lat="48.29577" lon="2.59289">
        <ele>121.08</ele>
        <time>2023-05-13T10:14:01Z</time>
      </trkpt>
      <trkpt lat="48.29569" lon="2.59298">
        <ele>121.45</ele>
        <time>2023-05-13T10:14:10Z</time>
      </trkpt>
      <trkpt lat="48.29561" lon="2.59304">
        <ele>121.22</ele>
        <time>2023-05-13T10:14:18Z</time>
      </trkpt>
      <trkpt lat="48.29552" lon="2.59308">
        <ele>122.69</ele>
        <time>2023-05-13T10:14:29Z</time>
      </trkpt>
      <trkpt lat="48.29543" lon="2.5931">
        <ele>124.01</ele>
        <time>2023-05-13T10:14:38Z</time>
      </trkpt>
      <trkpt lat="48.29533" lon="2.59314">
        <ele>125.16</ele>
        <time>2023-05-13T10:14:50Z</time>
      </trkpt>
      <trkpt lat="48.29523" lon="2.59312">
        <ele>127.48</ele>
        <time>2023-05-13T10:15:07Z</time>
      </trkpt>
      <trkpt lat="48.29516" lon="2.59322">
        <ele>128.99</ele>
        <time>2023-05-13T10:15:16Z</time>
      </trkpt>
      <trkpt lat="48.29513" lon="2.59336">
        <ele>130.1</ele>
        <time>2023-05-13T10:15:28Z</time>
      </trkpt>
      <trkpt lat="48.29513" lon="2.5935">
        <ele>131.47</ele>
        <time>2023-05-13T10:15:35Z</time>
      </trkpt>
      <trkpt lat="48.29512" lon="2.59364">
        <ele>132.5</ele>
        <time>2023-05-13T10:15:42Z</time>
      </trkpt>
      <trkpt lat="48.29517" lon="2.59376">
        <ele>133.53</ele>
        <time>2023-05-13T10:15:50Z</time>
      </trkpt>
      <trkpt lat="48.29524" lon="2.59386">
        <ele>135.3</ele>
        <time>2023-05-13T10:16:02Z</time>
      </trkpt>
      <trkpt lat="48.29532" lon="2.59393">
        <ele>136.75</ele>
        <time>2023-05-13T10:16:10Z</time>
      </trkpt>
      <trkpt lat="48.29538" lon="2.59404">
        <ele>137.52</ele>
        <time>2023-05-13T10:16:20Z</time>
      </trkpt>
      <trkpt lat="48.29546" lon="2.59413">
        <ele>137.15</ele>
        <time>2023-05-13T10:16:28Z</time>
      </trkpt>
      <trkpt lat="48.29547" lon="2.59428">
        <ele>138.71</ele>
        <time>2023-05-13T10:16:36Z</time>
      </trkpt>
      <trkpt lat="48.2954" lon="2.59438">
        <ele>137.73</ele>
        <time>2023-05-13T10:16:44Z</time>
      </trkpt>
      <trkpt lat="48.29538" lon="2.59453">
        <ele>136.71</ele>
        <time>2023-05-13T10:16:53Z</time>
      </trkpt>
      <trkpt lat="48.29529" lon="2.59458">
        <ele>135.98</ele>
        <time>2023-05-13T10:17:06Z</time>
      </trkpt>
      <trkpt lat="48.29522" lon="2.59469">
        <ele>135.32</ele>
        <time>2023-05-13T10:17:16Z</time>
      </trkpt>
      <trkpt lat="48.29517" lon="2.59481">
        <ele>135.59</ele>
        <time>2023-05-13T10:17:23Z</time>
      </trkpt>
      <trkpt lat="48.29509" lon="2.59488">
        <ele>134.16</ele>
        <time>2023-05-13T10:17:32Z</time>
      </trkpt>
      <trkpt lat="48.29501" lon="2.59495">
        <ele>134.18</ele>
        <time>2023-05-13T10:17:40Z</time>
      </trkpt>
      <trkpt lat="48.29493" lon="2.59505">
        <ele>133.13</ele>
        <time>2023-05-13T10:17:54Z</time>
      </trkpt>
      <trkpt lat="48.295" lon="2.59493">
        <ele>133.26</ele>
        <time>2023-05-13T10:18:14Z</time>
      </trkpt>
      <trkpt lat="48.29504" lon="2.5948">
        <ele>134.21</ele>
        <time>2023-05-13T10:18:27Z</time>
      </trkpt>
      <trkpt lat="48.29495" lon="2.59484">
        <ele>133.47</ele>
        <time>2023-05-13T10:19:02Z</time>
      </trkpt>
      <trkpt lat="48.29487" lon="2.59492">
        <ele>133.07</ele>
        <time>2023-05-13T10:19:11Z</time>
      </trkpt>
      <trkpt lat="48.2948" lon="2.59501">
        <ele>132.44</ele>
        <time>2023-05-13T10:19:24Z</time>
      </trkpt>
      <trkpt lat="48.29484" lon="2.59513">
        <ele>131.99</ele>
        <time>2023-05-13T10:19:57Z</time>
      </trkpt>
      <trkpt lat="48.29485" lon="2.59527">
        <ele>128.95</ele>
        <time>2023-05-13T10:20:20Z</time>
      </trkpt>
      <trkpt lat="48.29488" lon="2.5954">
        <ele>127.92</ele>
        <time>2023-05-13T10:20:42Z</time>
      </trkpt>
      <trkpt lat="48.29488" lon="2.59554">
        <ele>127.44</ele>
        <time>2023-05-13T10:20:51Z</time>
      </trkpt>
      <trkpt lat="48.2949" lon="2.59568">
        <ele>126.77</ele>
        <time>2023-05-13T10:21:34Z</time>
      </trkpt>
      <trkpt lat="48.29489" lon="2.59581">
        <ele>124.7</ele>
        <time>2023-05-13T10:22:10Z</time>
      </trkpt>
      <trkpt lat="48.29488" lon="2.59595">
        <ele>123.58</ele>
        <time>2023-05-13T10:22:17Z</time>
      </trkpt>
      <trkpt lat="48.29481" lon="2.59606">
        <ele>123.84</ele>
        <time>2023-05-13T10:22:26Z</time>
      </trkpt>
      <trkpt lat="48.2948" lon="2.5962">
        <ele>121.82</ele>
        <time>2023-05-13T10:22:41Z</time>
      </trkpt>
      <trkpt lat="48.29473" lon="2.59628">
        <ele>120.76</ele>
        <time>2023-05-13T10:22:51Z</time>
      </trkpt>
      <trkpt lat="48.29464" lon="2.59636">
        <ele>118.9</ele>
        <time>2023-05-13T10:22:57Z</time>
      </trkpt>
      <trkpt lat="48.2946" lon="2.59648">
        <ele>116.84</ele>
        <time>2023-05-13T10:23:30Z</time>
      </trkpt>
      <trkpt lat="48.29456" lon="2.59661">
        <ele>116.77</ele>
        <time>2023-05-13T10:23:36Z</time>
      </trkpt>
      <trkpt lat="48.29452" lon="2.59674">
        <ele>115.26</ele>
        <time>2023-05-13T10:23:42Z</time>
      </trkpt>
      <trkpt lat="48.29449" lon="2.59688">
        <ele>114.27</ele>
        <time>2023-05-13T10:23:50Z</time>
      </trkpt>
      <trkpt lat="48.29446" lon="2.59701">
        <ele>113.54</ele>
        <time>2023-05-13T10:24:00Z</time>
      </trkpt>
      <trkpt lat="48.29444" lon="2.59716">
        <ele>112.13</ele>
        <time>2023-05-13T10:24:09Z</time>
      </trkpt>
      <trkpt lat="48.29441" lon="2.59729">
        <ele>112.53</ele>
        <time>2023-05-13T10:24:15Z</time>
      </trkpt>
      <trkpt lat="48.29446" lon="2.59741">
        <ele>111.3</ele>
        <time>2023-05-13T10:24:45Z</time>
      </trkpt>
      <trkpt lat="48.29455" lon="2.59744">
        <ele>111.6</ele>
        <time>2023-05-13T10:24:51Z</time>
      </trkpt>
      <trkpt lat="48.29465" lon="2.59748">
        <ele>109.65</ele>
        <time>2023-05-13T10:24:58Z</time>
      </trkpt>
      <trkpt lat="48.29474" lon="2.59749">
        <ele>109.57</ele>
        <time>2023-05-13T10:25:07Z</time>
      </trkpt>
      <trkpt lat="48.29484" lon="2.59755">
        <ele>110.37</ele>
        <time>2023-05-13T10:25:15Z</time>
      </trkpt>
      <trkpt lat="48.29492" lon="2.5976">
        <ele>111.15</ele>
        <time>2023-05-13T10:25:27Z</time>
      </trkpt>
      <trkpt lat="48.29485" lon="2.59753">
        <ele>110.62</ele>
        <time>2023-05-13T10:25:45Z</time>
      </trkpt>
      <trkpt lat="48.29475" lon="2.59749">
        <ele>112.6</ele>
        <time>2023-05-13T10:25:54Z</time>
      </trkpt>
      <trkpt lat="48.29465" lon="2.59747">
        <ele>112.79</ele>
        <time>2023-05-13T10:26:03Z</time>
      </trkpt>
      <trkpt lat="48.29455" lon="2.59744">
        <ele>112.32</ele>
        <time>2023-05-13T10:26:10Z</time>
      </trkpt>
      <trkpt lat="48.29446" lon="2.59738">
        <ele>112.52</ele>
        <time>2023-05-13T10:26:18Z</time>
      </trkpt>
      <trkpt lat="48.29436" lon="2.59737">
        <ele>112.31</ele>
        <time>2023-05-13T10:26:25Z</time>
      </trkpt>
      <trkpt lat="48.29427" lon="2.59735">
        <ele>112.53</ele>
        <time>2023-05-13T10:26:33Z</time>
      </trkpt>
      <trkpt lat="48.29417" lon="2.59731">
        <ele>112.71</ele>
        <time>2023-05-13T10:26:41Z</time>
      </trkpt>
      <trkpt lat="48.29408" lon="2.5973">
        <ele>113.95</ele>
        <time>2023-05-13T10:26:48Z</time>
      </trkpt>
      <trkpt lat="48.29399" lon="2.59729">
        <ele>113.12</ele>
        <time>2023-05-13T10:26:55Z</time>
      </trkpt>
      <trkpt lat="48.29389" lon="2.59727">
        <ele>112.87</ele>
        <time>2023-05-13T10:27:03Z</time>
      </trkpt>
      <trkpt lat="48.29381" lon="2.59733">
        <ele>113.09</ele>
        <time>2023-05-13T10:27:11Z</time>
      </trkpt>
      <trkpt lat="48.29371" lon="2.59729">
        <ele>114.17</ele>
        <time>2023-05-13T10:27:21Z</time>
      </trkpt>
      <trkpt lat="48.29362" lon="2.59726">
        <ele>114.58</ele>
        <time>2023-05-13T10:27:31Z</time>
      </trkpt>
      <trkpt lat="48.29353" lon="2.59722">
        <ele>115.13</ele>
        <time>2023-05-13T10:27:40Z</time>
      </trkpt>
      <trkpt lat="48.29344" lon="2.59724">
        <ele>115.03</ele>
        <time>2023-05-13T10:27:48Z</time>
      </trkpt>
      <trkpt lat="48.29334" lon="2.5972">
        <ele>115.07</ele>
        <time>2023-05-13T10:27:55Z</time>
      </trkpt>
      <trkpt lat="48.29326" lon="2.59726">
        <ele>115.83</ele>
        <time>2023-05-13T10:28:05Z</time>
      </trkpt>
      <trkpt lat="48.29316" lon="2.59723">
        <ele>116.25</ele>
        <time>2023-05-13T10:28:12Z</time>
      </trkpt>
      <trkpt lat="48.29307" lon="2.59722">
        <ele>117.01</ele>
        <time>2023-05-13T10:28:19Z</time>
      </trkpt>
      <trkpt lat="48.29298" lon="2.59725">
        <ele>116.52</ele>
        <time>2023-05-13T10:28:26Z</time>
      </trkpt>
      <trkpt lat="48.29295" lon="2.59739">
        <ele>117.14</ele>
        <time>2023-05-13T10:28:36Z</time>
      </trkpt>
      <trkpt lat="48.29294" lon="2.59753">
        <ele>117.4</ele>
        <time>2023-05-13T10:28:41Z</time>
      </trkpt>
      <trkpt lat="48.29294" lon="2.59766">
        <ele>117.13</ele>
        <time>2023-05-13T10:28:47Z</time>
      </trkpt>
      <trkpt lat="48.29294" lon="2.59781">
        <ele>116.8</ele>
        <time>2023-05-13T10:28:54Z</time>
      </trkpt>
      <trkpt lat="48.29288" lon="2.59791">
        <ele>115.98</ele>
        <time>2023-05-13T10:29:02Z</time>
      </trkpt>
      <trkpt lat="48.29278" lon="2.59793">
        <ele>116.03</ele>
        <time>2023-05-13T10:29:09Z</time>
      </trkpt>
      <trkpt lat="48.29269" lon="2.59789">
        <ele>116.59</ele>
        <time>2023-05-13T10:29:17Z</time>
      </trkpt>
      <trkpt lat="48.29261" lon="2.59781">
        <ele>116.19</ele>
        <time>2023-05-13T10:29:25Z</time>
      </trkpt>
      <trkpt lat="48.29252" lon="2.59777">
        <ele>115.73</ele>
        <time>2023-05-13T10:29:34Z</time>
      </trkpt>
      <trkpt lat="48.29245" lon="2.59769">
        <ele>112.77</ele>
        <time>2023-05-13T10:30:06Z</time>
      </trkpt>
      <trkpt lat="48.29238" lon="2.59758">
        <ele>111.85</ele>
        <time>2023-05-13T10:30:16Z</time>
      </trkpt>
      <trkpt lat="48.29245" lon="2.59768">
        <ele>111.86</ele>
        <time>2023-05-13T10:31:10Z</time>
      </trkpt>
      <trkpt lat="48.29254" lon="2.59772">
        <ele>115.65</ele>
        <time>2023-05-13T10:32:08Z</time>
      </trkpt>
    </trkseg>
  </trk>
</gpx>